createdAt,value
2022-11-06T00:00:34.762Z,10.30
2022-11-06T00:03:03.885Z,10.30
2022-11-06T00:05:50.019Z,10.30
2022-11-06T00:08:28.063Z,10.20
2022-11-06T00:10:56.290Z,10.30
2022-11-06T00:13:25.941Z,10.30
2022-11-06T00:15:54.075Z,10.30
2022-11-06T00:18:22.084Z,10.30
2022-11-06T00:20:50.156Z,10.30
2022-11-06T00:23:18.256Z,10.30
2022-11-06T00:25:46.299Z,10.30
2022-11-06T00:28:14.834Z,10.40
2022-11-06T00:30:44.509Z,10.40
2022-11-06T00:33:12.553Z,10.40
2022-11-06T00:35:41.264Z,10.40
2022-11-06T00:38:09.520Z,10.40
2022-11-06T00:40:37.812Z,10.40
2022-11-06T00:43:05.891Z,10.40
2022-11-06T00:45:33.979Z,10.40
2022-11-06T00:48:03.390Z,10.40
2022-11-06T00:50:31.496Z,10.40
2022-11-06T00:52:59.481Z,10.40
2022-11-06T00:55:27.554Z,10.40
2022-11-06T00:57:55.690Z,10.40
2022-11-06T01:00:23.784Z,10.40
2022-11-06T01:02:51.945Z,10.40
2022-11-06T01:05:21.538Z,10.30
2022-11-06T01:07:49.583Z,10.30
2022-11-06T01:10:17.687Z,10.30
2022-11-06T01:12:45.749Z,10.30
2022-11-06T01:15:13.769Z,10.30
2022-11-06T01:17:41.856Z,10.40
2022-11-06T01:20:11.048Z,10.40
2022-11-06T01:22:40.475Z,10.40
2022-11-06T01:25:09.899Z,10.30
2022-11-06T01:27:37.948Z,10.40
2022-11-06T01:30:07.419Z,10.40
2022-11-06T01:32:35.744Z,10.40
2022-11-06T01:35:03.804Z,10.40
2022-11-06T01:37:31.935Z,10.50
2022-11-06T01:40:01.298Z,10.40
2022-11-06T01:42:29.369Z,10.50
2022-11-06T01:45:20.438Z,10.50
2022-11-06T01:47:49.329Z,10.50
2022-11-06T01:50:18.696Z,10.50
2022-11-06T01:52:50.100Z,10.50
2022-11-06T01:55:23.678Z,10.50
2022-11-06T01:57:52.552Z,10.50
2022-11-06T02:00:21.170Z,10.50
2022-11-06T02:02:50.857Z,10.50
2022-11-06T02:05:19.374Z,10.50
2022-11-06T02:07:47.693Z,10.50
2022-11-06T02:10:16.414Z,10.50
2022-11-06T02:12:54.356Z,10.60
2022-11-06T02:15:30.847Z,10.50
2022-11-06T02:18:13.285Z,10.50
2022-11-06T02:20:54.465Z,10.60
2022-11-06T02:23:51.588Z,10.50
2022-11-06T02:26:47.416Z,10.60
2022-11-06T02:29:21.177Z,10.50
2022-11-06T02:31:52.622Z,10.60
2022-11-06T02:34:24.910Z,10.60
2022-11-06T02:36:59.179Z,10.60
2022-11-06T02:39:29.564Z,10.60
2022-11-06T02:42:00.416Z,10.60
2022-11-06T02:44:32.005Z,10.60
2022-11-06T02:47:04.327Z,10.60
2022-11-06T02:49:39.115Z,10.60
2022-11-06T02:52:12.359Z,10.50
2022-11-06T02:54:45.308Z,10.50
2022-11-06T02:57:18.064Z,10.60
2022-11-06T02:59:51.222Z,10.50
2022-11-06T03:02:25.479Z,10.50
2022-11-06T03:05:00.184Z,10.50
2022-11-06T03:07:34.137Z,10.50
2022-11-06T03:10:02.520Z,10.50
2022-11-06T03:12:34.944Z,10.60
2022-11-06T03:15:15.904Z,10.50
2022-11-06T03:17:50.126Z,10.60
2022-11-06T03:20:23.622Z,10.60
2022-11-06T03:22:58.174Z,10.60
2022-11-06T03:25:30.467Z,10.60
2022-11-06T03:28:06.740Z,10.60
2022-11-06T03:30:38.724Z,10.70
2022-11-06T03:33:14.767Z,10.70
2022-11-06T03:35:48.918Z,10.70
2022-11-06T03:38:20.594Z,10.70
2022-11-06T03:40:54.405Z,10.70
2022-11-06T03:43:29.539Z,10.70
2022-11-06T03:45:58.958Z,10.70
2022-11-06T03:48:33.134Z,10.70
2022-11-06T03:51:04.760Z,10.70
2022-11-06T03:53:41.008Z,10.70
2022-11-06T03:56:14.761Z,10.70
2022-11-06T03:58:47.112Z,10.70
2022-11-06T04:01:17.608Z,10.70
2022-11-06T04:03:50.787Z,10.70
2022-11-06T04:06:22.792Z,10.70
2022-11-06T04:09:10.961Z,10.70
2022-11-06T04:11:58.481Z,10.70
2022-11-06T04:14:30.974Z,10.70
2022-11-06T04:17:03.261Z,10.70
2022-11-06T04:19:31.268Z,10.70
2022-11-06T04:22:22.792Z,10.70
2022-11-06T04:25:21.172Z,10.70
2022-11-06T04:28:07.621Z,10.70
2022-11-06T04:30:44.842Z,10.80
2022-11-06T04:33:19.428Z,10.80
2022-11-06T04:36:00.064Z,10.80
2022-11-06T04:38:37.341Z,10.80
2022-11-06T04:41:14.352Z,10.70
2022-11-06T04:43:47.366Z,10.80
2022-11-06T04:46:21.647Z,10.70
2022-11-06T04:48:50.943Z,10.80
2022-11-06T04:51:22.487Z,10.70
2022-11-06T04:53:53.291Z,10.70
2022-11-06T04:56:29.147Z,10.70
2022-11-06T04:58:57.682Z,10.70
2022-11-06T05:01:27.887Z,10.70
2022-11-06T05:03:55.949Z,10.80
2022-11-06T05:06:29.617Z,10.80
2022-11-06T05:08:59.075Z,10.80
2022-11-06T05:11:27.150Z,10.80
2022-11-06T05:13:55.350Z,10.80
2022-11-06T05:16:23.419Z,10.80
2022-11-06T05:18:52.835Z,10.80
2022-11-06T05:21:38.442Z,10.90
2022-11-06T05:24:07.679Z,10.80
2022-11-06T05:26:35.867Z,10.80
2022-11-06T05:29:04.276Z,10.80
2022-11-06T05:31:32.628Z,10.80
2022-11-06T05:34:02.039Z,10.80
2022-11-06T05:36:30.100Z,10.80
2022-11-06T05:38:58.143Z,10.80
2022-11-06T05:41:26.297Z,10.80
2022-11-06T05:43:54.665Z,10.80
2022-11-06T05:46:47.048Z,10.80
2022-11-06T05:49:12.149Z,10.80
2022-11-06T05:51:40.274Z,10.80
2022-11-06T05:54:08.325Z,10.80
2022-11-06T05:56:36.561Z,10.80
2022-11-06T05:59:04.713Z,10.80
2022-11-06T06:01:32.998Z,10.90
2022-11-06T06:04:01.173Z,10.90
2022-11-06T06:06:30.837Z,10.90
2022-11-06T06:08:58.877Z,10.90
2022-11-06T06:11:26.948Z,10.90
2022-11-06T06:13:55.855Z,10.90
2022-11-06T06:16:23.987Z,10.90
2022-11-06T06:18:52.158Z,10.90
2022-11-06T06:21:20.448Z,10.90
2022-11-06T06:23:50.186Z,10.90
2022-11-06T06:26:18.282Z,10.80
2022-11-06T06:28:49.471Z,10.80
2022-11-06T06:31:17.874Z,10.90
2022-11-06T06:33:46.451Z,10.90
2022-11-06T06:36:14.743Z,10.90
2022-11-06T06:38:43.074Z,10.90
2022-11-06T06:41:12.625Z,10.90
2022-11-06T06:43:40.818Z,10.90
2022-11-06T06:46:09.686Z,10.90
2022-11-06T06:48:38.555Z,10.90
2022-11-06T06:51:07.949Z,11.00
2022-11-06T06:53:36.371Z,11.00
2022-11-06T06:56:04.736Z,11.00
2022-11-06T06:58:35.168Z,11.10
2022-11-06T07:01:05.240Z,11.10
2022-11-06T07:03:33.817Z,11.20
2022-11-06T07:06:02.074Z,11.20
2022-11-06T07:08:30.836Z,11.30
2022-11-06T07:11:02.685Z,11.30
2022-11-06T07:13:35.522Z,11.20
2022-11-06T07:16:05.622Z,11.10
2022-11-06T07:18:33.777Z,11.10
2022-11-06T07:21:02.084Z,11.10
2022-11-06T07:23:30.106Z,11.10
2022-11-06T07:25:58.444Z,11.10
2022-11-06T07:28:26.617Z,11.10
2022-11-06T07:30:59.504Z,11.10
2022-11-06T07:33:29.128Z,11.10
2022-11-06T07:35:57.344Z,11.10
2022-11-06T07:38:25.412Z,11.10
2022-11-06T07:40:53.498Z,11.20
2022-11-06T07:43:21.593Z,11.20
2022-11-06T07:45:49.643Z,11.20
2022-11-06T07:48:17.748Z,11.10
2022-11-06T07:50:47.116Z,11.20
2022-11-06T07:53:15.658Z,11.20
2022-11-06T07:55:49.740Z,11.20
2022-11-06T07:58:18.246Z,11.20
2022-11-06T08:00:48.729Z,11.20
2022-11-06T08:03:17.480Z,11.20
2022-11-06T08:05:47.548Z,11.30
2022-11-06T08:08:15.889Z,11.40
2022-11-06T08:10:44.991Z,11.50
2022-11-06T08:13:14.432Z,11.50
2022-11-06T08:15:43.214Z,11.50
2022-11-06T08:18:13.060Z,11.50
2022-11-06T08:20:41.910Z,11.70
2022-11-06T08:23:14.085Z,11.80
2022-11-06T08:25:42.360Z,11.70
2022-11-06T08:28:11.550Z,11.60
2022-11-06T08:30:39.909Z,11.60
2022-11-06T08:33:09.347Z,11.60
2022-11-06T08:35:37.591Z,11.60
2022-11-06T08:38:05.962Z,11.60
2022-11-06T08:40:37.536Z,11.70
2022-11-06T08:43:07.431Z,11.70
2022-11-06T08:45:38.463Z,11.80
2022-11-06T08:48:07.483Z,11.80
2022-11-06T08:50:37.025Z,11.70
2022-11-06T08:53:06.534Z,11.70
2022-11-06T08:55:37.717Z,11.70
2022-11-06T08:58:06.865Z,11.80
2022-11-06T09:00:35.443Z,12.00
2022-11-06T09:03:05.652Z,12.30
2022-11-06T09:05:34.276Z,12.60
2022-11-06T09:08:02.490Z,12.80
2022-11-06T09:10:30.640Z,12.80
2022-11-06T09:13:00.971Z,12.80
2022-11-06T09:15:29.115Z,13.00
2022-11-06T09:17:57.629Z,13.10
2022-11-06T09:20:26.627Z,13.10
2022-11-06T09:22:55.478Z,13.10
2022-11-06T09:25:23.549Z,13.30
2022-11-06T09:27:59.266Z,13.40
2022-11-06T09:30:30.920Z,13.40
2022-11-06T09:33:01.315Z,13.40
2022-11-06T09:35:31.805Z,13.40
2022-11-06T09:38:03.360Z,13.40
2022-11-06T09:40:35.097Z,13.40
2022-11-06T09:43:31.833Z,13.40
2022-11-06T09:46:18.390Z,13.40
2022-11-06T09:48:50.879Z,13.50
2022-11-06T09:51:28.430Z,13.50
2022-11-06T09:54:02.741Z,13.50
2022-11-06T09:56:35.160Z,13.40
2022-11-06T09:59:06.468Z,13.30
2022-11-06T10:01:43.915Z,13.30
2022-11-06T10:04:25.269Z,13.30
2022-11-06T10:06:54.390Z,13.30
2022-11-06T10:09:22.689Z,13.30
2022-11-06T10:12:01.120Z,13.30
2022-11-06T10:14:46.098Z,13.30
2022-11-06T10:17:27.742Z,13.30
2022-11-06T10:20:01.377Z,13.30
2022-11-06T10:22:37.438Z,13.30
2022-11-06T10:25:19.904Z,13.30
2022-11-06T10:28:01.962Z,13.20
2022-11-06T10:30:40.658Z,13.30
2022-11-06T10:33:32.312Z,13.30
2022-11-06T10:36:04.711Z,13.30
2022-11-06T10:38:37.332Z,13.20
2022-11-06T10:41:05.729Z,13.10
2022-11-06T10:43:41.222Z,13.10
2022-11-06T10:46:20.006Z,13.20
2022-11-06T10:48:54.029Z,13.20
2022-11-06T10:51:36.988Z,13.20
2022-11-06T10:54:19.259Z,13.20
2022-11-06T10:57:02.034Z,13.20
2022-11-06T10:59:30.414Z,13.30
2022-11-06T11:01:58.689Z,13.40
2022-11-06T11:04:28.165Z,13.30
2022-11-06T11:06:56.539Z,13.30
2022-11-06T11:09:30.261Z,13.40
2022-11-06T11:11:58.891Z,13.30
2022-11-06T11:14:28.793Z,13.40
2022-11-06T11:16:59.903Z,13.40
2022-11-06T11:19:36.956Z,13.40
2022-11-06T11:22:07.005Z,13.50
2022-11-06T11:24:35.137Z,13.50
2022-11-06T11:27:05.634Z,13.60
2022-11-06T11:29:42.704Z,13.60
2022-11-06T11:32:16.781Z,13.60
2022-11-06T11:34:53.937Z,13.60
2022-11-06T11:37:26.862Z,13.60
2022-11-06T11:39:55.116Z,13.60
2022-11-06T11:42:25.857Z,13.60
2022-11-06T11:45:15.408Z,13.60
2022-11-06T11:47:46.627Z,13.60
2022-11-06T11:50:37.131Z,13.60
2022-11-06T11:53:14.681Z,13.50
2022-11-06T11:55:45.437Z,13.50
2022-11-06T11:58:21.135Z,13.50
2022-11-06T12:00:54.965Z,13.50
2022-11-06T12:03:25.299Z,13.50
2022-11-06T12:05:55.597Z,13.50
2022-11-06T12:08:26.454Z,13.50
2022-11-06T12:11:01.921Z,13.50
2022-11-06T12:13:30.064Z,13.50
2022-11-06T12:16:00.398Z,13.50
2022-11-06T12:18:31.737Z,13.50
2022-11-06T12:21:04.994Z,13.50
2022-11-06T12:23:44.860Z,13.40
2022-11-06T12:26:21.198Z,13.40
2022-11-06T12:28:53.759Z,13.40
2022-11-06T12:31:29.475Z,13.40
2022-11-06T12:34:06.954Z,13.50
2022-11-06T12:36:41.273Z,13.40
2022-11-06T12:39:15.491Z,13.40
2022-11-06T12:41:46.841Z,13.40
2022-11-06T12:44:17.045Z,13.40
2022-11-06T12:46:51.896Z,13.30
2022-11-06T12:49:42.360Z,13.30
2022-11-06T12:52:25.121Z,13.30
2022-11-06T12:55:12.120Z,13.30
2022-11-06T12:57:54.108Z,13.20
2022-11-06T13:00:30.172Z,13.20
2022-11-06T13:03:20.476Z,13.20
2022-11-06T13:05:56.495Z,13.20
2022-11-06T13:08:35.735Z,13.20
2022-11-06T13:11:15.078Z,13.10
2022-11-06T13:13:55.784Z,13.00
2022-11-06T13:16:31.891Z,13.00
2022-11-06T13:19:05.906Z,12.90
2022-11-06T13:21:56.041Z,12.80
2022-11-06T13:24:31.043Z,12.80
2022-11-06T13:27:09.508Z,12.60
2022-11-06T13:29:38.587Z,12.60
2022-11-06T13:32:13.165Z,12.60
2022-11-06T13:34:43.347Z,12.50
2022-11-06T13:37:17.566Z,12.40
2022-11-06T13:39:51.147Z,12.30
2022-11-06T13:42:24.445Z,12.30
2022-11-06T13:44:53.529Z,12.20
2022-11-06T13:47:28.902Z,12.20
2022-11-06T13:50:05.225Z,12.10
2022-11-06T13:52:42.475Z,12.00
2022-11-06T13:55:18.612Z,11.90
2022-11-06T13:58:04.456Z,11.90
2022-11-06T14:00:41.675Z,11.80
2022-11-06T14:03:46.136Z,11.70
2022-11-06T14:06:20.378Z,11.60
2022-11-06T14:08:51.826Z,11.60
2022-11-06T14:11:27.010Z,11.50
2022-11-06T14:14:01.554Z,11.60
2022-11-06T14:16:33.387Z,11.50
2022-11-06T14:19:08.041Z,11.50
2022-11-06T14:21:48.268Z,11.50
2022-11-06T14:24:28.811Z,11.30
2022-11-06T14:26:59.256Z,11.20
2022-11-06T14:29:58.616Z,11.20
2022-11-06T14:32:42.610Z,11.10
2022-11-06T14:35:47.652Z,11.00
2022-11-06T14:38:37.614Z,11.00
2022-11-06T14:41:51.660Z,10.90
2022-11-06T14:44:34.574Z,10.90
2022-11-06T14:47:06.259Z,10.80
2022-11-06T14:49:42.153Z,10.80
2022-11-06T14:52:13.106Z,10.70
2022-11-06T14:54:50.178Z,10.70
2022-11-06T14:57:34.591Z,10.70
2022-11-06T15:00:05.464Z,10.60
2022-11-06T15:02:37.587Z,10.60
2022-11-06T15:05:13.718Z,10.60
2022-11-06T15:08:05.941Z,10.50
2022-11-06T15:10:55.067Z,10.50
2022-11-06T15:13:27.943Z,10.40
2022-11-06T15:16:03.533Z,10.40
2022-11-06T15:18:34.102Z,10.30
2022-11-06T15:21:05.854Z,10.30
2022-11-06T15:23:40.317Z,10.30
2022-11-06T15:26:19.306Z,10.20
2022-11-06T15:28:50.236Z,10.10
2022-11-06T15:31:21.726Z,10.10
2022-11-06T15:33:58.334Z,10.00
2022-11-06T15:36:29.215Z,10.10
2022-11-06T15:38:57.294Z,10.00
2022-11-06T15:41:27.266Z,10.00
2022-11-06T15:43:58.154Z,9.90
2022-11-06T15:46:29.406Z,9.90
2022-11-06T15:49:17.037Z,9.90
2022-11-06T15:51:52.794Z,9.80
2022-11-06T15:54:37.988Z,9.80
2022-11-06T15:57:14.523Z,9.70
2022-11-06T15:59:42.976Z,9.70
2022-11-06T16:02:17.529Z,9.60
2022-11-06T16:04:46.775Z,9.60
2022-11-06T16:07:16.009Z,9.60
2022-11-06T16:09:44.791Z,9.60
2022-11-06T16:12:13.888Z,9.50
2022-11-06T16:14:44.229Z,9.50
2022-11-06T16:17:19.557Z,9.50
2022-11-06T16:19:49.890Z,9.40
2022-11-06T16:22:20.104Z,9.40
2022-11-06T16:24:52.727Z,9.40
2022-11-06T16:27:23.485Z,9.30
2022-11-06T16:29:55.467Z,9.30
2022-11-06T16:32:27.935Z,9.30
2022-11-06T16:34:56.403Z,9.30
2022-11-06T16:37:39.603Z,9.30
2022-11-06T16:40:49.779Z,9.30
2022-11-06T16:43:19.528Z,9.30
2022-11-06T16:45:56.140Z,9.30
2022-11-06T16:48:39.663Z,9.20
2022-11-06T16:51:10.957Z,9.20
2022-11-06T16:53:53.256Z,9.20
2022-11-06T16:56:25.695Z,9.20
2022-11-06T16:58:57.861Z,9.20
2022-11-06T17:01:27.001Z,9.20
2022-11-06T17:04:00.160Z,9.20
2022-11-06T17:06:31.371Z,9.20
2022-11-06T17:09:09.661Z,9.20
2022-11-06T17:11:38.759Z,9.20
2022-11-06T17:14:19.645Z,9.20
2022-11-06T17:16:49.956Z,9.20
2022-11-06T17:19:20.778Z,9.20
2022-11-06T17:21:50.121Z,9.20
2022-11-06T17:24:36.102Z,9.20
2022-11-06T17:27:04.926Z,9.20
2022-11-06T17:29:33.919Z,9.20
2022-11-06T17:32:01.934Z,9.20
2022-11-06T17:34:31.316Z,9.20
2022-11-06T17:36:59.469Z,9.20
2022-11-06T17:39:27.551Z,9.30
2022-11-06T17:41:55.597Z,9.30
2022-11-06T17:44:23.715Z,9.30
2022-11-06T17:46:51.771Z,9.30
2022-11-06T17:49:19.833Z,9.30
2022-11-06T17:51:58.173Z,9.30
2022-11-06T17:54:28.063Z,9.30
2022-11-06T17:56:57.662Z,9.40
2022-11-06T17:59:26.066Z,9.40
2022-11-06T18:01:55.542Z,9.40
2022-11-06T18:04:25.539Z,9.40
2022-11-06T18:06:55.765Z,9.40
2022-11-06T18:09:24.651Z,9.40
2022-11-06T18:11:54.707Z,9.40
2022-11-06T18:14:24.024Z,9.40
2022-11-06T18:16:52.632Z,9.40
2022-11-06T18:19:22.322Z,9.50
2022-11-06T18:21:51.096Z,9.50
2022-11-06T18:24:20.504Z,9.50
2022-11-06T18:26:48.611Z,9.50
2022-11-06T18:29:16.730Z,9.50
2022-11-06T18:31:45.049Z,9.50
2022-11-06T18:34:19.449Z,9.50
2022-11-06T18:36:50.093Z,9.60
2022-11-06T18:39:18.431Z,9.50
2022-11-06T18:41:47.875Z,9.50
2022-11-06T18:44:17.441Z,9.60
2022-11-06T18:46:45.712Z,9.60
2022-11-06T18:49:13.849Z,9.60
2022-11-06T18:51:42.069Z,9.60
2022-11-06T18:54:12.385Z,9.60
2022-11-06T18:56:40.674Z,9.60
2022-11-06T18:59:15.520Z,9.60
2022-11-06T19:01:43.973Z,9.60
2022-11-06T19:04:12.253Z,9.60
2022-11-06T19:06:41.043Z,9.60
2022-11-06T19:09:09.490Z,9.60
2022-11-06T19:11:37.626Z,9.60
2022-11-06T19:14:05.994Z,9.70
2022-11-06T19:16:35.502Z,9.70
2022-11-06T19:19:05.625Z,9.70
2022-11-06T19:21:34.607Z,9.70
2022-11-06T19:24:05.560Z,9.70
2022-11-06T19:26:35.452Z,9.70
2022-11-06T19:29:03.824Z,9.60
2022-11-06T19:31:33.608Z,9.60
2022-11-06T19:34:04.315Z,9.60
2022-11-06T19:36:32.866Z,9.60
2022-11-06T19:39:01.324Z,9.60
2022-11-06T19:41:30.189Z,9.70
2022-11-06T19:43:58.456Z,9.70
2022-11-06T19:46:33.681Z,9.70
2022-11-06T19:49:05.140Z,9.70
2022-11-06T19:51:34.201Z,9.70
2022-11-06T19:54:02.721Z,9.80
2022-11-06T19:56:30.793Z,9.80
2022-11-06T19:58:59.330Z,9.80
2022-11-06T20:01:27.679Z,9.80
2022-11-06T20:03:55.874Z,9.80
2022-11-06T20:06:27.373Z,9.90
2022-11-06T20:08:55.596Z,9.90
2022-11-06T20:11:23.791Z,9.90
2022-11-06T20:13:52.227Z,10.00
2022-11-06T20:16:21.353Z,10.10
2022-11-06T20:18:52.269Z,10.10
2022-11-06T20:21:21.055Z,10.20
2022-11-06T20:23:51.110Z,10.30
2022-11-06T20:26:19.775Z,10.30
2022-11-06T20:28:48.564Z,10.30
2022-11-06T20:31:19.628Z,10.40
2022-11-06T20:33:48.414Z,10.50
2022-11-06T20:36:18.923Z,10.50
2022-11-06T20:38:47.651Z,10.50
2022-11-06T20:41:17.911Z,10.50
2022-11-06T20:43:46.726Z,10.60
2022-11-06T20:46:17.600Z,10.60
2022-11-06T20:48:46.228Z,10.60
2022-11-06T20:51:17.508Z,10.70
2022-11-06T20:53:46.335Z,10.70
2022-11-06T20:56:17.788Z,10.70
2022-11-06T20:58:46.550Z,10.70
2022-11-06T21:01:19.913Z,10.80
2022-11-06T21:03:50.438Z,10.80
2022-11-06T21:06:19.592Z,10.80
2022-11-06T21:08:47.943Z,10.80
2022-11-06T21:11:19.474Z,10.80
2022-11-06T21:13:49.403Z,10.90
2022-11-06T21:16:20.241Z,10.90
2022-11-06T21:18:48.787Z,10.80
2022-11-06T21:21:22.352Z,10.80
2022-11-06T21:23:51.925Z,10.80
2022-11-06T21:26:23.258Z,10.80
2022-11-06T21:28:52.410Z,10.80
2022-11-06T21:31:22.535Z,10.80
2022-11-06T21:33:52.518Z,10.80
2022-11-06T21:36:22.519Z,10.90
2022-11-06T21:38:50.923Z,10.90
2022-11-06T21:41:22.475Z,10.90
2022-11-06T21:43:50.811Z,11.00
2022-11-06T21:46:19.476Z,10.90
2022-11-06T21:48:48.067Z,10.90
2022-11-06T21:51:18.707Z,11.00
2022-11-06T21:54:04.682Z,11.10
2022-11-06T21:56:35.372Z,11.10
2022-11-06T21:59:05.779Z,11.00
2022-11-06T22:01:34.493Z,11.00
2022-11-06T22:04:02.815Z,11.00
2022-11-06T22:06:31.411Z,11.00
2022-11-06T22:09:01.042Z,11.10
2022-11-06T22:11:31.283Z,11.10
2022-11-06T22:14:03.366Z,11.10
2022-11-06T22:16:35.706Z,11.10
2022-11-06T22:19:04.233Z,11.10
2022-11-06T22:21:32.340Z,11.10
2022-11-06T22:24:00.537Z,11.00
2022-11-06T22:26:30.947Z,11.00
2022-11-06T22:29:02.040Z,11.00
2022-11-06T22:31:30.888Z,11.00
2022-11-06T22:33:59.002Z,11.10
2022-11-06T22:36:27.227Z,11.00
2022-11-06T22:38:55.390Z,11.10
2022-11-06T22:41:25.389Z,11.10
2022-11-06T22:43:58.090Z,11.10
2022-11-06T22:46:28.315Z,11.20
2022-11-06T22:48:56.548Z,11.20
2022-11-06T22:51:26.233Z,11.20
2022-11-06T22:53:54.608Z,11.20
2022-11-06T22:56:23.781Z,11.30
2022-11-06T22:58:54.772Z,11.40
2022-11-06T23:01:24.543Z,11.40
2022-11-06T23:03:56.935Z,11.50
2022-11-06T23:06:26.356Z,11.50
2022-11-06T23:08:55.061Z,11.50
2022-11-06T23:11:24.309Z,11.40
2022-11-06T23:13:52.752Z,11.40
2022-11-06T23:16:43.702Z,11.40
2022-11-06T23:19:18.772Z,11.40
2022-11-06T23:21:46.856Z,11.40
2022-11-06T23:24:14.916Z,11.40
2022-11-06T23:26:44.117Z,11.40
2022-11-06T23:29:12.207Z,11.50
2022-11-06T23:31:41.136Z,11.60
2022-11-06T23:34:09.650Z,11.60
2022-11-06T23:36:39.124Z,11.70
2022-11-06T23:39:07.159Z,11.70
2022-11-06T23:41:45.767Z,11.70
2022-11-06T23:44:33.054Z,11.70
2022-11-06T23:47:01.693Z,11.80
2022-11-06T23:49:29.983Z,11.70
2022-11-06T23:51:59.659Z,11.60
2022-11-06T23:54:27.817Z,11.70
2022-11-06T23:56:55.917Z,11.60
2022-11-06T23:59:24.449Z,11.50
